sensor_id;sensor_type;location;lat;lon;timestamp;P1;durP1;ratioP1;P2;durP2;ratioP2
35602;SDS011;21725;50.836;4.368;2023-10-31T00:00:10;17.70;;;10.98;;
35602;SDS011;21725;50.836;4.368;2023-10-31T00:06:52;15.32;;;9.32;;
35602;SDS011;21725;50.836;4.368;2023-10-31T00:10:03;19.23;;;10.85;;
35602;SDS011;21725;50.836;4.368;2023-10-31T00:16:36;22.80;;;9.77;;
35602;SDS011;21725;50.836;4.368;2023-10-31T00:19:44;16.52;;;10.57;;
35602;SDS011;21725;50.836;4.368;2023-10-31T00:26:53;15.07;;;7.50;;
35602;SDS011;21725;50.836;4.368;2023-10-31T00:29:56;14.00;;;8.68;;
35602;SDS011;21725;50.836;4.368;2023-10-31T00:33:06;12.23;;;8.52;;
35602;SDS011;21725;50.836;4.368;2023-10-31T00:36:12;12.85;;;8.13;;
35602;SDS011;21725;50.836;4.368;2023-10-31T00:39:32;8.93;;;5.97;;
35602;SDS011;21725;50.836;4.368;2023-10-31T00:42:34;9.85;;;6.20;;
35602;SDS011;21725;50.836;4.368;2023-10-31T00:45:50;8.75;;;6.47;;
35602;SDS011;21725;50.836;4.368;2023-10-31T00:49:11;8.30;;;6.07;;
35602;SDS011;21725;50.836;4.368;2023-10-31T00:52:28;8.48;;;5.90;;
35602;SDS011;21725;50.836;4.368;2023-10-31T00:55:42;11.00;;;6.32;;
35602;SDS011;21725;50.836;4.368;2023-10-31T00:58:45;9.18;;;6.28;;
35602;SDS011;21725;50.836;4.368;2023-10-31T01:02:01;10.77;;;6.20;;
35602;SDS011;21725;50.836;4.368;2023-10-31T01:05:18;7.75;;;5.70;;
35602;SDS011;21725;50.836;4.368;2023-10-31T01:08:29;9.55;;;5.70;;
35602;SDS011;21725;50.836;4.368;2023-10-31T01:12:00;10.15;;;6.35;;
35602;SDS011;21725;50.836;4.368;2023-10-31T01:15:17;12.38;;;6.00;;
35602;SDS011;21725;50.836;4.368;2023-10-31T01:18:27;9.55;;;6.88;;
35602;SDS011;21725;50.836;4.368;2023-10-31T01:21:38;9.52;;;6.40;;
35602;SDS011;21725;50.836;4.368;2023-10-31T01:24:42;10.75;;;6.30;;
35602;SDS011;21725;50.836;4.368;2023-10-31T01:27:56;10.55;;;7.07;;
35602;SDS011;21725;50.836;4.368;2023-10-31T01:31:02;11.85;;;5.68;;
35602;SDS011;21725;50.836;4.368;2023-10-31T01:34:06;9.38;;;6.50;;
35602;SDS011;21725;50.836;4.368;2023-10-31T01:37:15;12.05;;;6.13;;
35602;SDS011;21725;50.836;4.368;2023-10-31T01:40:29;8.65;;;5.80;;
35602;SDS011;21725;50.836;4.368;2023-10-31T01:47:02;8.82;;;6.00;;
35602;SDS011;21725;50.836;4.368;2023-10-31T01:50:10;10.55;;;5.97;;
35602;SDS011;21725;50.836;4.368;2023-10-31T01:53:25;11.95;;;6.63;;
35602;SDS011;21725;50.836;4.368;2023-10-31T01:56:39;11.30;;;6.00;;
35602;SDS011;21725;50.836;4.368;2023-10-31T01:59:51;9.80;;;6.05;;
35602;SDS011;21725;50.836;4.368;2023-10-31T02:02:54;10.38;;;6.20;;
35602;SDS011;21725;50.836;4.368;2023-10-31T02:06:13;7.88;;;4.97;;
35602;SDS011;21725;50.836;4.368;2023-10-31T02:09:27;11.25;;;6.28;;
35602;SDS011;21725;50.836;4.368;2023-10-31T02:15:57;9.48;;;6.47;;
35602;SDS011;21725;50.836;4.368;2023-10-31T02:19:19;10.02;;;5.63;;
35602;SDS011;21725;50.836;4.368;2023-10-31T02:22:41;10.43;;;5.72;;
35602;SDS011;21725;50.836;4.368;2023-10-31T02:25:58;11.07;;;6.88;;
35602;SDS011;21725;50.836;4.368;2023-10-31T02:29:09;10.98;;;6.05;;
35602;SDS011;21725;50.836;4.368;2023-10-31T02:32:15;8.30;;;5.87;;
35602;SDS011;21725;50.836;4.368;2023-10-31T02:39:32;8.40;;;5.75;;
35602;SDS011;21725;50.836;4.368;2023-10-31T02:42:38;8.88;;;5.85;;
35602;SDS011;21725;50.836;4.368;2023-10-31T02:45:45;10.70;;;7.13;;
35602;SDS011;21725;50.836;4.368;2023-10-31T02:48:49;10.63;;;6.22;;
35602;SDS011;21725;50.836;4.368;2023-10-31T02:52:19;10.48;;;6.80;;
35602;SDS011;21725;50.836;4.368;2023-10-31T02:55:36;12.88;;;7.15;;
35602;SDS011;21725;50.836;4.368;2023-10-31T02:58:50;10.32;;;6.47;;
35602;SDS011;21725;50.836;4.368;2023-10-31T03:01:53;9.90;;;5.95;;
35602;SDS011;21725;50.836;4.368;2023-10-31T03:05:02;9.30;;;5.57;;
35602;SDS011;21725;50.836;4.368;2023-10-31T03:08:06;10.30;;;6.00;;
35602;SDS011;21725;50.836;4.368;2023-10-31T03:11:20;10.70;;;6.90;;
35602;SDS011;21725;50.836;4.368;2023-10-31T03:14:41;10.43;;;6.28;;
35602;SDS011;21725;50.836;4.368;2023-10-31T03:17:44;9.40;;;6.97;;
35602;SDS011;21725;50.836;4.368;2023-10-31T03:21:20;10.20;;;7.50;;
35602;SDS011;21725;50.836;4.368;2023-10-31T03:24:26;13.73;;;8.32;;
35602;SDS011;21725;50.836;4.368;2023-10-31T03:27:27;13.73;;;8.52;;
35602;SDS011;21725;50.836;4.368;2023-10-31T03:30:32;15.68;;;9.00;;
35602;SDS011;21725;50.836;4.368;2023-10-31T03:33:36;12.80;;;9.55;;
35602;SDS011;21725;50.836;4.368;2023-10-31T03:37:00;10.07;;;8.02;;
35602;SDS011;21725;50.836;4.368;2023-10-31T03:40:24;10.52;;;8.13;;
35602;SDS011;21725;50.836;4.368;2023-10-31T03:43:27;11.57;;;8.55;;
35602;SDS011;21725;50.836;4.368;2023-10-31T03:46:42;13.82;;;9.13;;
35602;SDS011;21725;50.836;4.368;2023-10-31T03:53:25;10.40;;;7.97;;
35602;SDS011;21725;50.836;4.368;2023-10-31T03:56:42;13.95;;;7.78;;
35602;SDS011;21725;50.836;4.368;2023-10-31T03:59:43;15.90;;;8.50;;
35602;SDS011;21725;50.836;4.368;2023-10-31T04:03:09;15.48;;;9.32;;
35602;SDS011;21725;50.836;4.368;2023-10-31T04:06:31;12.82;;;8.27;;
35602;SDS011;21725;50.836;4.368;2023-10-31T04:09:42;11.43;;;8.93;;
35602;SDS011;21725;50.836;4.368;2023-10-31T04:12:50;12.82;;;9.63;;
35602;SDS011;21725;50.836;4.368;2023-10-31T04:15:54;17.35;;;9.90;;
35602;SDS011;21725;50.836;4.368;2023-10-31T04:19:04;12.70;;;9.10;;
35602;SDS011;21725;50.836;4.368;2023-10-31T04:22:49;12.80;;;9.65;;
35602;SDS011;21725;50.836;4.368;2023-10-31T04:25:52;12.63;;;9.05;;
35602;SDS011;21725;50.836;4.368;2023-10-31T04:29:11;15.02;;;10.57;;
35602;SDS011;21725;50.836;4.368;2023-10-31T04:32:21;11.10;;;9.05;;
35602;SDS011;21725;50.836;4.368;2023-10-31T04:35:22;11.80;;;9.48;;
35602;SDS011;21725;50.836;4.368;2023-10-31T04:38:30;14.95;;;10.18;;
35602;SDS011;21725;50.836;4.368;2023-10-31T04:41:44;13.98;;;10.43;;
35602;SDS011;21725;50.836;4.368;2023-10-31T04:45:04;13.70;;;9.85;;
35602;SDS011;21725;50.836;4.368;2023-10-31T04:48:17;14.57;;;10.75;;
35602;SDS011;21725;50.836;4.368;2023-10-31T04:55:00;16.48;;;11.15;;
35602;SDS011;21725;50.836;4.368;2023-10-31T04:58:15;16.40;;;12.63;;
35602;SDS011;21725;50.836;4.368;2023-10-31T05:01:19;14.82;;;10.75;;
35602;SDS011;21725;50.836;4.368;2023-10-31T05:04:31;13.93;;;11.45;;
35602;SDS011;21725;50.836;4.368;2023-10-31T05:07:43;15.60;;;11.25;;
35602;SDS011;21725;50.836;4.368;2023-10-31T05:11:01;14.18;;;10.27;;
35602;SDS011;21725;50.836;4.368;2023-10-31T05:14:08;14.35;;;11.25;;
35602;SDS011;21725;50.836;4.368;2023-10-31T05:17:34;20.67;;;10.48;;
35602;SDS011;21725;50.836;4.368;2023-10-31T05:20:43;14.10;;;10.35;;
35602;SDS011;21725;50.836;4.368;2023-10-31T05:23:47;12.90;;;9.60;;
35602;SDS011;21725;50.836;4.368;2023-10-31T05:26:55;14.63;;;10.15;;
35602;SDS011;21725;50.836;4.368;2023-10-31T05:30:13;13.60;;;10.10;;
35602;SDS011;21725;50.836;4.368;2023-10-31T05:33:22;14.05;;;9.48;;
35602;SDS011;21725;50.836;4.368;2023-10-31T05:36:28;16.73;;;10.98;;
35602;SDS011;21725;50.836;4.368;2023-10-31T05:39:29;15.55;;;11.77;;
35602;SDS011;21725;50.836;4.368;2023-10-31T05:42:47;14.68;;;11.43;;
35602;SDS011;21725;50.836;4.368;2023-10-31T05:45:55;15.20;;;11.48;;
35602;SDS011;21725;50.836;4.368;2023-10-31T05:48:58;14.82;;;10.45;;
35602;SDS011;21725;50.836;4.368;2023-10-31T05:51:59;15.02;;;10.48;;
35602;SDS011;21725;50.836;4.368;2023-10-31T05:55:24;14.45;;;10.77;;
35602;SDS011;21725;50.836;4.368;2023-10-31T05:58:36;12.77;;;10.02;;
35602;SDS011;21725;50.836;4.368;2023-10-31T06:01:40;15.38;;;11.82;;
35602;SDS011;21725;50.836;4.368;2023-10-31T06:04:59;14.63;;;11.82;;
35602;SDS011;21725;50.836;4.368;2023-10-31T06:08:20;14.88;;;10.07;;
35602;SDS011;21725;50.836;4.368;2023-10-31T06:14:54;12.95;;;10.18;;
35602;SDS011;21725;50.836;4.368;2023-10-31T06:18:28;13.60;;;9.55;;
35602;SDS011;21725;50.836;4.368;2023-10-31T06:21:50;12.65;;;9.57;;
35602;SDS011;21725;50.836;4.368;2023-10-31T06:24:59;14.88;;;10.77;;
35602;SDS011;21725;50.836;4.368;2023-10-31T06:31:11;12.23;;;8.40;;
35602;SDS011;21725;50.836;4.368;2023-10-31T06:34:24;14.90;;;8.63;;
35602;SDS011;21725;50.836;4.368;2023-10-31T06:37:28;13.85;;;11.63;;
35602;SDS011;21725;50.836;4.368;2023-10-31T06:40:48;16.90;;;11.88;;
35602;SDS011;21725;50.836;4.368;2023-10-31T06:43:49;13.05;;;9.68;;
35602;SDS011;21725;50.836;4.368;2023-10-31T06:47:10;13.73;;;8.52;;
35602;SDS011;21725;50.836;4.368;2023-10-31T06:50:47;14.57;;;8.40;;
35602;SDS011;21725;50.836;4.368;2023-10-31T07:16:08;17.33;;;6.75;;
35602;SDS011;21725;50.836;4.368;2023-10-31T07:19:14;10.48;;;7.18;;
35602;SDS011;21725;50.836;4.368;2023-10-31T07:22:50;10.18;;;7.68;;
35602;SDS011;21725;50.836;4.368;2023-10-31T07:25:57;12.18;;;7.13;;
35602;SDS011;21725;50.836;4.368;2023-10-31T07:29:06;10.90;;;7.65;;
35602;SDS011;21725;50.836;4.368;2023-10-31T07:32:11;19.48;;;11.82;;
35602;SDS011;21725;50.836;4.368;2023-10-31T07:35:46;10.85;;;7.85;;
35602;SDS011;21725;50.836;4.368;2023-10-31T07:38:59;11.48;;;7.00;;
35602;SDS011;21725;50.836;4.368;2023-10-31T07:42:21;9.20;;;6.50;;
35602;SDS011;21725;50.836;4.368;2023-10-31T07:45:22;13.43;;;6.78;;
35602;SDS011;21725;50.836;4.368;2023-10-31T07:48:28;13.07;;;6.63;;
35602;SDS011;21725;50.836;4.368;2023-10-31T07:51:39;9.73;;;7.43;;
35602;SDS011;21725;50.836;4.368;2023-10-31T07:54:43;23.73;;;7.05;;
35602;SDS011;21725;50.836;4.368;2023-10-31T07:58:06;9.02;;;4.93;;
35602;SDS011;21725;50.836;4.368;2023-10-31T08:01:33;11.40;;;6.20;;
35602;SDS011;21725;50.836;4.368;2023-10-31T08:04:41;10.30;;;6.28;;
35602;SDS011;21725;50.836;4.368;2023-10-31T08:07:47;12.20;;;5.88;;
35602;SDS011;21725;50.836;4.368;2023-10-31T08:10:56;7.93;;;5.20;;
35602;SDS011;21725;50.836;4.368;2023-10-31T08:14:00;10.02;;;5.55;;
35602;SDS011;21725;50.836;4.368;2023-10-31T08:17:14;8.13;;;4.97;;
35602;SDS011;21725;50.836;4.368;2023-10-31T08:20:34;11.20;;;5.07;;
35602;SDS011;21725;50.836;4.368;2023-10-31T08:23:38;10.60;;;4.97;;
35602;SDS011;21725;50.836;4.368;2023-10-31T08:26:48;12.60;;;5.25;;
35602;SDS011;21725;50.836;4.368;2023-10-31T08:29:54;10.27;;;5.57;;
35602;SDS011;21725;50.836;4.368;2023-10-31T08:33:21;11.45;;;5.53;;
35602;SDS011;21725;50.836;4.368;2023-10-31T08:36:27;11.82;;;5.15;;
35602;SDS011;21725;50.836;4.368;2023-10-31T08:39:44;9.13;;;4.35;;
35602;SDS011;21725;50.836;4.368;2023-10-31T08:42:53;10.32;;;4.40;;
35602;SDS011;21725;50.836;4.368;2023-10-31T08:46:17;9.93;;;4.65;;
35602;SDS011;21725;50.836;4.368;2023-10-31T08:49:22;14.45;;;5.45;;
35602;SDS011;21725;50.836;4.368;2023-10-31T08:52:28;11.68;;;6.13;;
35602;SDS011;21725;50.836;4.368;2023-10-31T08:55:36;13.60;;;5.50;;
35602;SDS011;21725;50.836;4.368;2023-10-31T08:58:55;13.38;;;5.30;;
35602;SDS011;21725;50.836;4.368;2023-10-31T09:02:16;12.63;;;5.75;;
35602;SDS011;21725;50.836;4.368;2023-10-31T09:05:17;22.08;;;12.05;;
35602;SDS011;21725;50.836;4.368;2023-10-31T09:08:29;17.13;;;8.35;;
35602;SDS011;21725;50.836;4.368;2023-10-31T09:12:04;11.50;;;5.70;;
35602;SDS011;21725;50.836;4.368;2023-10-31T09:15:28;13.75;;;4.57;;
35602;SDS011;21725;50.836;4.368;2023-10-31T09:18:48;15.03;;;6.47;;
35602;SDS011;21725;50.836;4.368;2023-10-31T09:22:02;12.10;;;5.13;;
35602;SDS011;21725;50.836;4.368;2023-10-31T09:25:09;11.77;;;4.65;;
35602;SDS011;21725;50.836;4.368;2023-10-31T09:28:13;9.15;;;4.10;;
35602;SDS011;21725;50.836;4.368;2023-10-31T09:31:22;12.98;;;5.30;;
35602;SDS011;21725;50.836;4.368;2023-10-31T09:34:36;12.90;;;5.13;;
35602;SDS011;21725;50.836;4.368;2023-10-31T09:37:58;11.10;;;4.68;;
35602;SDS011;21725;50.836;4.368;2023-10-31T09:41:01;9.40;;;4.35;;
35602;SDS011;21725;50.836;4.368;2023-10-31T09:44:27;14.00;;;5.68;;
35602;SDS011;21725;50.836;4.368;2023-10-31T09:47:38;9.63;;;5.10;;
35602;SDS011;21725;50.836;4.368;2023-10-31T09:51:00;10.13;;;4.47;;
35602;SDS011;21725;50.836;4.368;2023-10-31T09:54:23;11.32;;;5.07;;
35602;SDS011;21725;50.836;4.368;2023-10-31T09:57:42;10.20;;;5.07;;
35602;SDS011;21725;50.836;4.368;2023-10-31T10:00:50;8.38;;;4.60;;
35602;SDS011;21725;50.836;4.368;2023-10-31T10:04:16;9.90;;;3.92;;
35602;SDS011;21725;50.836;4.368;2023-10-31T10:07:23;11.57;;;4.78;;
35602;SDS011;21725;50.836;4.368;2023-10-31T10:10:35;9.43;;;4.38;;
35602;SDS011;21725;50.836;4.368;2023-10-31T10:14:00;9.88;;;4.75;;
35602;SDS011;21725;50.836;4.368;2023-10-31T10:17:04;9.77;;;4.45;;
35602;SDS011;21725;50.836;4.368;2023-10-31T10:20:24;15.07;;;5.38;;
35602;SDS011;21725;50.836;4.368;2023-10-31T10:23:27;10.57;;;4.25;;
35602;SDS011;21725;50.836;4.368;2023-10-31T10:27:00;13.65;;;4.80;;
35602;SDS011;21725;50.836;4.368;2023-10-31T10:30:19;10.15;;;4.70;;
35602;SDS011;21725;50.836;4.368;2023-10-31T10:33:29;9.52;;;4.75;;
35602;SDS011;21725;50.836;4.368;2023-10-31T10:40:13;13.57;;;5.38;;
35602;SDS011;21725;50.836;4.368;2023-10-31T10:43:21;10.50;;;4.45;;
35602;SDS011;21725;50.836;4.368;2023-10-31T10:46:38;15.10;;;5.05;;
35602;SDS011;21725;50.836;4.368;2023-10-31T10:49:53;9.90;;;4.50;;
35602;SDS011;21725;50.836;4.368;2023-10-31T10:56:41;9.20;;;4.47;;
35602;SDS011;21725;50.836;4.368;2023-10-31T10:59:51;11.25;;;4.63;;
35602;SDS011;21725;50.836;4.368;2023-10-31T11:03:18;11.25;;;4.88;;
35602;SDS011;21725;50.836;4.368;2023-10-31T11:06:23;14.70;;;6.00;;
35602;SDS011;21725;50.836;4.368;2023-10-31T11:09:52;13.68;;;6.55;;
35602;SDS011;21725;50.836;4.368;2023-10-31T11:12:54;19.25;;;9.15;;
35602;SDS011;21725;50.836;4.368;2023-10-31T11:16:23;22.08;;;10.02;;
35602;SDS011;21725;50.836;4.368;2023-10-31T11:19:39;18.27;;;10.43;;
35602;SDS011;21725;50.836;4.368;2023-10-31T11:22:54;25.33;;;14.50;;
35602;SDS011;21725;50.836;4.368;2023-10-31T11:26:08;17.98;;;11.07;;
35602;SDS011;21725;50.836;4.368;2023-10-31T11:29:20;19.40;;;13.32;;
35602;SDS011;21725;50.836;4.368;2023-10-31T11:32:33;20.27;;;12.35;;
35602;SDS011;21725;50.836;4.368;2023-10-31T11:35:39;15.50;;;11.38;;
35602;SDS011;21725;50.836;4.368;2023-10-31T11:39:10;19.65;;;12.43;;
35602;SDS011;21725;50.836;4.368;2023-10-31T11:42:40;21.02;;;11.23;;
35602;SDS011;21725;50.836;4.368;2023-10-31T11:45:47;18.48;;;11.27;;
35602;SDS011;21725;50.836;4.368;2023-10-31T11:49:01;19.88;;;11.88;;
35602;SDS011;21725;50.836;4.368;2023-10-31T11:52:18;19.92;;;10.93;;
35602;SDS011;21725;50.836;4.368;2023-10-31T11:55:28;16.33;;;8.88;;
35602;SDS011;21725;50.836;4.368;2023-10-31T11:58:41;19.60;;;8.93;;
35602;SDS011;21725;50.836;4.368;2023-10-31T12:01:53;16.85;;;7.95;;
35602;SDS011;21725;50.836;4.368;2023-10-31T12:05:15;14.43;;;7.90;;
35602;SDS011;21725;50.836;4.368;2023-10-31T12:08:26;13.90;;;7.47;;
35602;SDS011;21725;50.836;4.368;2023-10-31T12:11:36;12.25;;;6.65;;
35602;SDS011;21725;50.836;4.368;2023-10-31T12:14:47;10.95;;;6.28;;
35602;SDS011;21725;50.836;4.368;2023-10-31T12:17:48;17.65;;;8.70;;
35602;SDS011;21725;50.836;4.368;2023-10-31T12:21:33;10.65;;;6.88;;
35602;SDS011;21725;50.836;4.368;2023-10-31T12:24:49;16.20;;;8.68;;
35602;SDS011;21725;50.836;4.368;2023-10-31T12:28:00;15.95;;;7.55;;
35602;SDS011;21725;50.836;4.368;2023-10-31T12:31:30;12.43;;;6.25;;
35602;SDS011;21725;50.836;4.368;2023-10-31T12:34:43;12.32;;;6.75;;
35602;SDS011;21725;50.836;4.368;2023-10-31T12:38:07;8.77;;;5.50;;
35602;SDS011;21725;50.836;4.368;2023-10-31T12:45:00;12.05;;;5.20;;
35602;SDS011;21725;50.836;4.368;2023-10-31T12:48:06;9.55;;;5.28;;
35602;SDS011;21725;50.836;4.368;2023-10-31T12:57:56;7.53;;;3.60;;
35602;SDS011;21725;50.836;4.368;2023-10-31T13:01:00;8.13;;;4.50;;
35602;SDS011;21725;50.836;4.368;2023-10-31T13:04:29;8.00;;;3.58;;
35602;SDS011;21725;50.836;4.368;2023-10-31T13:07:31;7.07;;;3.72;;
35602;SDS011;21725;50.836;4.368;2023-10-31T13:10:39;6.45;;;3.70;;
35602;SDS011;21725;50.836;4.368;2023-10-31T13:14:06;6.70;;;3.63;;
35602;SDS011;21725;50.836;4.368;2023-10-31T13:17:09;6.40;;;3.75;;
35602;SDS011;21725;50.836;4.368;2023-10-31T13:20:14;11.02;;;4.53;;
35602;SDS011;21725;50.836;4.368;2023-10-31T13:23:18;9.38;;;5.25;;
35602;SDS011;21725;50.836;4.368;2023-10-31T13:26:41;6.70;;;4.10;;
35602;SDS011;21725;50.836;4.368;2023-10-31T13:29:50;10.35;;;5.18;;
35602;SDS011;21725;50.836;4.368;2023-10-31T13:32:51;10.27;;;5.70;;
35602;SDS011;21725;50.836;4.368;2023-10-31T13:36:14;11.38;;;5.93;;
35602;SDS011;21725;50.836;4.368;2023-10-31T13:39:27;8.43;;;5.38;;
35602;SDS011;21725;50.836;4.368;2023-10-31T13:45:54;11.40;;;5.65;;
35602;SDS011;21725;50.836;4.368;2023-10-31T13:49:10;11.02;;;6.80;;
35602;SDS011;21725;50.836;4.368;2023-10-31T13:52:20;14.07;;;7.75;;
35602;SDS011;21725;50.836;4.368;2023-10-31T13:55:23;16.00;;;6.90;;
35602;SDS011;21725;50.836;4.368;2023-10-31T13:58:34;11.30;;;6.13;;
35602;SDS011;21725;50.836;4.368;2023-10-31T14:01:54;10.60;;;5.38;;
35602;SDS011;21725;50.836;4.368;2023-10-31T14:05:06;12.30;;;5.63;;
35602;SDS011;21725;50.836;4.368;2023-10-31T14:08:13;8.68;;;5.07;;
35602;SDS011;21725;50.836;4.368;2023-10-31T14:11:19;7.55;;;4.63;;
35602;SDS011;21725;50.836;4.368;2023-10-31T14:14:30;12.20;;;5.10;;
35602;SDS011;21725;50.836;4.368;2023-10-31T14:17:50;10.10;;;4.75;;
35602;SDS011;21725;50.836;4.368;2023-10-31T14:21:22;12.05;;;5.47;;
35602;SDS011;21725;50.836;4.368;2023-10-31T14:24:35;9.90;;;4.88;;
35602;SDS011;21725;50.836;4.368;2023-10-31T14:27:44;9.90;;;4.38;;
35602;SDS011;21725;50.836;4.368;2023-10-31T14:30:47;9.45;;;4.97;;
35602;SDS011;21725;50.836;4.368;2023-10-31T14:33:53;9.13;;;4.60;;
35602;SDS011;21725;50.836;4.368;2023-10-31T14:41:04;10.18;;;3.83;;
35602;SDS011;21725;50.836;4.368;2023-10-31T14:44:08;11.23;;;3.85;;
35602;SDS011;21725;50.836;4.368;2023-10-31T14:47:47;13.85;;;4.25;;
35602;SDS011;21725;50.836;4.368;2023-10-31T14:50:58;11.27;;;4.28;;
35602;SDS011;21725;50.836;4.368;2023-10-31T14:54:05;11.68;;;4.85;;
35602;SDS011;21725;50.836;4.368;2023-10-31T15:00:20;10.02;;;4.20;;
35602;SDS011;21725;50.836;4.368;2023-10-31T15:03:30;15.68;;;4.32;;
35602;SDS011;21725;50.836;4.368;2023-10-31T15:06:40;10.50;;;4.55;;
35602;SDS011;21725;50.836;4.368;2023-10-31T15:10:10;9.13;;;4.30;;
35602;SDS011;21725;50.836;4.368;2023-10-31T15:13:34;9.23;;;4.30;;
35602;SDS011;21725;50.836;4.368;2023-10-31T15:16:57;8.77;;;3.90;;
35602;SDS011;21725;50.836;4.368;2023-10-31T15:19:58;9.82;;;4.10;;
35602;SDS011;21725;50.836;4.368;2023-10-31T15:23:40;11.02;;;4.72;;
35602;SDS011;21725;50.836;4.368;2023-10-31T15:27:00;10.75;;;4.45;;
35602;SDS011;21725;50.836;4.368;2023-10-31T15:30:01;10.35;;;4.45;;
35602;SDS011;21725;50.836;4.368;2023-10-31T15:33:05;11.98;;;4.93;;
35602;SDS011;21725;50.836;4.368;2023-10-31T15:36:09;8.95;;;4.35;;
35602;SDS011;21725;50.836;4.368;2023-10-31T15:39:26;11.82;;;6.55;;
35602;SDS011;21725;50.836;4.368;2023-10-31T15:42:43;11.93;;;5.38;;
35602;SDS011;21725;50.836;4.368;2023-10-31T15:45:51;10.45;;;5.25;;
35602;SDS011;21725;50.836;4.368;2023-10-31T15:49:22;12.27;;;6.10;;
35602;SDS011;21725;50.836;4.368;2023-10-31T15:52:32;15.15;;;6.60;;
35602;SDS011;21725;50.836;4.368;2023-10-31T15:55:44;14.60;;;6.45;;
35602;SDS011;21725;50.836;4.368;2023-10-31T15:58:50;14.17;;;8.70;;
35602;SDS011;21725;50.836;4.368;2023-10-31T16:02:14;14.57;;;7.57;;
35602;SDS011;21725;50.836;4.368;2023-10-31T16:05:41;11.93;;;6.28;;
35602;SDS011;21725;50.836;4.368;2023-10-31T16:08:53;19.67;;;6.45;;
35602;SDS011;21725;50.836;4.368;2023-10-31T16:12:01;12.32;;;5.28;;
35602;SDS011;21725;50.836;4.368;2023-10-31T16:15:26;19.25;;;6.80;;
35602;SDS011;21725;50.836;4.368;2023-10-31T16:18:36;11.95;;;6.00;;
35602;SDS011;21725;50.836;4.368;2023-10-31T16:21:52;11.82;;;5.07;;
35602;SDS011;21725;50.836;4.368;2023-10-31T16:25:08;13.60;;;5.72;;
35602;SDS011;21725;50.836;4.368;2023-10-31T16:28:18;15.98;;;7.15;;
35602;SDS011;21725;50.836;4.368;2023-10-31T16:31:37;15.25;;;7.30;;
35602;SDS011;21725;50.836;4.368;2023-10-31T16:34:40;18.05;;;7.60;;
35602;SDS011;21725;50.836;4.368;2023-10-31T16:37:51;15.60;;;6.22;;
35602;SDS011;21725;50.836;4.368;2023-10-31T16:41:04;17.30;;;6.88;;
35602;SDS011;21725;50.836;4.368;2023-10-31T16:44:10;14.73;;;7.57;;
35602;SDS011;21725;50.836;4.368;2023-10-31T16:47:16;16.10;;;7.22;;
35602;SDS011;21725;50.836;4.368;2023-10-31T16:50:39;14.73;;;6.00;;
35602;SDS011;21725;50.836;4.368;2023-10-31T16:53:55;19.30;;;7.95;;
35602;SDS011;21725;50.836;4.368;2023-10-31T16:56:59;13.43;;;7.25;;
35602;SDS011;21725;50.836;4.368;2023-10-31T17:03:46;13.80;;;7.07;;
35602;SDS011;21725;50.836;4.368;2023-10-31T17:06:54;11.10;;;5.85;;
35602;SDS011;21725;50.836;4.368;2023-10-31T17:10:05;12.00;;;6.57;;
35602;SDS011;21725;50.836;4.368;2023-10-31T17:13:30;14.07;;;5.75;;
35602;SDS011;21725;50.836;4.368;2023-10-31T17:16:55;20.25;;;7.03;;
35602;SDS011;21725;50.836;4.368;2023-10-31T17:20:16;13.77;;;5.28;;
35602;SDS011;21725;50.836;4.368;2023-10-31T17:23:24;23.30;;;6.13;;
35602;SDS011;21725;50.836;4.368;2023-10-31T17:26:39;11.85;;;5.32;;
35602;SDS011;21725;50.836;4.368;2023-10-31T17:29:43;15.05;;;6.78;;
35602;SDS011;21725;50.836;4.368;2023-10-31T17:32:49;14.52;;;6.53;;
35602;SDS011;21725;50.836;4.368;2023-10-31T17:36:13;17.00;;;6.27;;
35602;SDS011;21725;50.836;4.368;2023-10-31T17:39:22;20.65;;;6.47;;
35602;SDS011;21725;50.836;4.368;2023-10-31T17:42:43;17.05;;;7.40;;
35602;SDS011;21725;50.836;4.368;2023-10-31T17:45:51;11.70;;;5.43;;
35602;SDS011;21725;50.836;4.368;2023-10-31T17:49:00;19.38;;;6.90;;
35602;SDS011;21725;50.836;4.368;2023-10-31T17:52:14;13.90;;;6.22;;
35602;SDS011;21725;50.836;4.368;2023-10-31T17:55:23;18.77;;;6.55;;
35602;SDS011;21725;50.836;4.368;2023-10-31T17:58:48;16.10;;;6.63;;
35602;SDS011;21725;50.836;4.368;2023-10-31T18:02:00;17.10;;;6.97;;
35602;SDS011;21725;50.836;4.368;2023-10-31T18:05:24;16.33;;;6.63;;
35602;SDS011;21725;50.836;4.368;2023-10-31T18:08:30;14.63;;;8.10;;
35602;SDS011;21725;50.836;4.368;2023-10-31T18:11:51;20.95;;;8.35;;
35602;SDS011;21725;50.836;4.368;2023-10-31T18:14:55;19.13;;;8.20;;
35602;SDS011;21725;50.836;4.368;2023-10-31T18:18:00;14.13;;;6.90;;
35602;SDS011;21725;50.836;4.368;2023-10-31T18:21:07;15.82;;;8.68;;
35602;SDS011;21725;50.836;4.368;2023-10-31T18:24:13;17.08;;;8.30;;
35602;SDS011;21725;50.836;4.368;2023-10-31T18:27:20;21.27;;;8.63;;
35602;SDS011;21725;50.836;4.368;2023-10-31T18:30:24;26.50;;;8.77;;
35602;SDS011;21725;50.836;4.368;2023-10-31T18:33:45;20.55;;;9.07;;
35602;SDS011;21725;50.836;4.368;2023-10-31T18:37:05;17.98;;;8.80;;
35602;SDS011;21725;50.836;4.368;2023-10-31T18:40:35;20.98;;;9.85;;
35602;SDS011;21725;50.836;4.368;2023-10-31T18:44:05;14.27;;;6.97;;
35602;SDS011;21725;50.836;4.368;2023-10-31T18:47:36;21.63;;;8.57;;
35602;SDS011;21725;50.836;4.368;2023-10-31T18:50:54;18.17;;;8.95;;
35602;SDS011;21725;50.836;4.368;2023-10-31T18:53:58;17.15;;;9.05;;
35602;SDS011;21725;50.836;4.368;2023-10-31T18:57:01;18.88;;;7.15;;
35602;SDS011;21725;50.836;4.368;2023-10-31T19:00:14;19.48;;;8.75;;
35602;SDS011;21725;50.836;4.368;2023-10-31T19:03:29;17.15;;;8.23;;
35602;SDS011;21725;50.836;4.368;2023-10-31T19:06:47;16.55;;;7.00;;
35602;SDS011;21725;50.836;4.368;2023-10-31T19:09:51;19.38;;;6.97;;
35602;SDS011;21725;50.836;4.368;2023-10-31T19:12:53;14.32;;;6.18;;
35602;SDS011;21725;50.836;4.368;2023-10-31T19:16:04;15.02;;;7.28;;
35602;SDS011;21725;50.836;4.368;2023-10-31T19:19:15;23.10;;;10.35;;
35602;SDS011;21725;50.836;4.368;2023-10-31T19:22:23;19.48;;;9.30;;
35602;SDS011;21725;50.836;4.368;2023-10-31T19:25:50;24.10;;;8.80;;
35602;SDS011;21725;50.836;4.368;2023-10-31T19:32:48;20.33;;;8.27;;
35602;SDS011;21725;50.836;4.368;2023-10-31T19:35:54;15.05;;;6.35;;
35602;SDS011;21725;50.836;4.368;2023-10-31T19:38:58;15.73;;;7.30;;
35602;SDS011;21725;50.836;4.368;2023-10-31T19:42:22;14.77;;;7.00;;
35602;SDS011;21725;50.836;4.368;2023-10-31T19:45:43;15.05;;;5.20;;
35602;SDS011;21725;50.836;4.368;2023-10-31T19:48:47;13.60;;;4.68;;
35602;SDS011;21725;50.836;4.368;2023-10-31T19:52:00;13.70;;;4.53;;
35602;SDS011;21725;50.836;4.368;2023-10-31T19:55:03;12.13;;;4.60;;
35602;SDS011;21725;50.836;4.368;2023-10-31T19:58:07;13.88;;;4.00;;
35602;SDS011;21725;50.836;4.368;2023-10-31T20:01:11;12.80;;;4.55;;
35602;SDS011;21725;50.836;4.368;2023-10-31T20:04:15;12.27;;;4.82;;
35602;SDS011;21725;50.836;4.368;2023-10-31T20:07:24;26.48;;;13.07;;
35602;SDS011;21725;50.836;4.368;2023-10-31T20:10:27;20.83;;;4.88;;
35602;SDS011;21725;50.836;4.368;2023-10-31T20:13:33;14.23;;;5.95;;
35602;SDS011;21725;50.836;4.368;2023-10-31T20:16:39;17.55;;;6.72;;
35602;SDS011;21725;50.836;4.368;2023-10-31T20:20:02;15.40;;;4.53;;
35602;SDS011;21725;50.836;4.368;2023-10-31T20:23:27;27.50;;;8.63;;
35602;SDS011;21725;50.836;4.368;2023-10-31T20:26:41;11.18;;;4.93;;
35602;SDS011;21725;50.836;4.368;2023-10-31T20:29:52;11.70;;;5.18;;
35602;SDS011;21725;50.836;4.368;2023-10-31T20:33:07;14.02;;;4.22;;
35602;SDS011;21725;50.836;4.368;2023-10-31T20:36:18;11.45;;;4.30;;
35602;SDS011;21725;50.836;4.368;2023-10-31T20:39:24;6.20;;;3.13;;